Time;durP1;ratioP1;P1;durP2;ratioP2;P2;SDS_P1;SDS_P2;PMS_P1;PMS_P2;Temp;Humidity;BMP_temperature;BMP_pressure;BME280_temperature;BME280_humidity;BME280_pressure;Samples;Min_cycle;Max_cycle;Signal;HPM_P1;HPM_P2
2023/09/15 00:01:46;;;;;;;;;7.00;7.00;;;;;20.98;57.08;101230.69;5036782;28;45368;-69
2023/09/15 00:04:12;;;;;;;;;4.00;4.00;;;;;20.81;57.05;101209.38;5037399;28;45229;-70
2023/09/15 00:06:37;;;;;;;;;5.67;5.67;;;;;20.76;57.07;101203.75;5023728;28;47317;-69
2023/09/15 00:09:05;;;;;;;;;5.33;5.00;;;;;20.88;57.16;101220.25;5015721;28;45477;-68
2023/09/15 00:11:39;;;;;;;;;8.33;8.00;;;;;20.91;57.05;101226.09;5016969;28;45353;-70
2023/09/15 00:14:04;;;;;;;;;7.00;5.67;;;;;20.84;57.44;101222.53;5017977;28;45593;-68
2023/09/15 00:16:30;;;;;;;;;9.67;7.67;;;;;20.81;57.40;101227.47;5035477;28;45569;-69
2023/09/15 00:18:55;;;;;;;;;7.00;7.00;;;;;20.82;57.32;101227.28;5022984;28;45693;-69
2023/09/15 00:21:20;;;;;;;;;7.00;6.00;;;;;20.85;57.38;101229.59;5016082;28;59654;-69
2023/09/15 00:23:50;;;;;;;;;7.33;6.00;;;;;20.81;57.39;101222.06;5007079;28;45588;-69
2023/09/15 00:26:15;;;;;;;;;6.67;6.00;;;;;20.86;57.34;101231.25;5016802;28;46438;-69
2023/09/15 00:28:41;;;;;;;;;8.67;8.67;;;;;20.80;57.19;101226.63;5016430;28;45504;-69
2023/09/15 00:31:06;;;;;;;;;5.33;5.33;;;;;20.83;57.55;101214.63;5016401;28;56952;-69
2023/09/15 00:33:31;;;;;;;;;6.67;5.67;;;;;20.80;57.33;101213.13;5025916;28;45558;-70
2023/09/15 00:35:57;;;;;;;;;9.00;7.67;;;;;20.84;57.46;101225.22;5036516;28;47443;-69
2023/09/15 00:38:22;;;;;;;;;8.67;7.00;;;;;20.68;57.39;101195.00;5035506;28;45258;-68
2023/09/15 00:40:47;;;;;;;;;7.67;6.67;;;;;20.79;57.57;101219.56;5036089;28;45313;-70
2023/09/15 00:43:14;;;;;;;;;10.67;7.33;;;;;20.80;57.53;101217.69;5037002;28;45471;-69
2023/09/15 00:45:39;;;;;;;;;10.33;10.00;;;;;20.78;57.72;101219.75;5034022;28;46470;-69
2023/09/15 00:48:07;;;;;;;;;6.50;6.50;;;;;20.74;57.67;101205.81;5036242;28;54566;-69
2023/09/15 00:50:32;;;;;;;;;8.25;7.50;;;;;20.80;57.72;101220.41;5026465;28;45300;-69
2023/09/15 00:53:03;;;;;;;;;6.00;6.00;;;;;20.80;57.54;101210.41;5027877;28;45538;-68
2023/09/15 00:55:29;;;;;;;;;8.67;8.00;;;;;20.82;57.79;101212.91;5035484;28;46649;-68
2023/09/15 00:57:56;;;;;;;;;8.33;6.67;;;;;20.76;57.51;101206.44;5036285;28;45321;-69
2023/09/15 01:00:22;;;;;;;;;7.00;7.00;;;;;20.78;57.44;101215.19;5039079;28;45325;-69
2023/09/15 01:02:49;;;;;;;;;8.00;7.00;;;;;20.76;57.28;101209.16;5039063;28;45347;-69
2023/09/15 01:05:22;;;;;;;;;5.67;5.67;;;;;20.31;57.66;101132.19;5039689;28;47774;-69
2023/09/15 01:07:52;;;;;;;;;6.00;6.00;;;;;20.64;57.62;101194.56;5038705;28;45551;-69
2023/09/15 01:10:19;;;;;;;;;7.00;7.00;;;;;20.76;57.30;101209.16;5012075;28;45350;-70
2023/09/15 01:12:46;;;;;;;;;8.67;8.00;;;;;20.73;57.54;101206.84;5038678;28;45380;-68
2023/09/15 01:15:12;;;;;;;;;5.33;5.33;;;;;20.76;57.81;101202.91;5023065;28;47525;-70
2023/09/15 01:17:51;;;;;;;;;6.33;6.33;;;;;20.40;57.36;101149.88;5031853;28;45435;-69
2023/09/15 01:20:37;;;;;;;;;6.33;6.33;;;;;20.46;57.53;101156.41;5039467;28;45308;-69
2023/09/15 01:23:24;;;;;;;;;8.00;8.00;;;;;20.70;57.62;101201.84;5032723;28;45505;-69
2023/09/15 01:26:17;;;;;;;;;7.00;7.00;;;;;20.69;57.82;101208.28;5039505;28;47388;-69
2023/09/15 01:29:10;;;;;;;;;10.00;9.00;;;;;20.69;57.49;101200.19;5027668;28;45618;-69
2023/09/15 01:31:37;;;;;;;;;7.00;7.00;;;;;20.70;57.84;101201.03;5022648;28;45234;-68
2023/09/15 01:34:03;;;;;;;;;6.00;6.00;;;;;20.68;57.73;101195.81;5019738;28;46593;-70
2023/09/15 01:36:28;;;;;;;;;6.67;6.67;;;;;20.54;57.40;101188.66;5022012;28;47019;-69
2023/09/15 01:38:54;;;;;;;;;9.00;8.00;;;;;20.60;57.91;101187.84;5039296;28;45329;-69
2023/09/15 01:41:19;;;;;;;;;9.25;6.75;;;;;20.64;57.80;101195.38;5035431;28;45395;-70
2023/09/15 01:43:45;;;;;;;;;6.00;6.00;;;;;20.63;57.96;101188.31;5019789;28;45454;-69
2023/09/15 01:46:10;;;;;;;;;6.00;6.00;;;;;20.64;58.19;101195.38;5028814;28;45838;-69
2023/09/15 01:48:36;;;;;;;;;7.33;7.00;;;;;20.65;58.17;101190.81;5039239;28;49577;-68
2023/09/15 01:51:03;;;;;;;;;8.67;7.00;;;;;20.54;57.85;101176.00;5029199;28;45420;-68
2023/09/15 01:53:30;;;;;;;;;6.33;6.33;;;;;20.58;57.82;101179.94;5019413;28;45557;-69
2023/09/15 01:55:55;;;;;;;;;7.67;7.67;;;;;20.64;57.90;101189.16;5029129;28;46541;-68
2023/09/15 01:58:21;;;;;;;;;7.00;5.67;;;;;20.62;57.79;101188.50;5039158;28;45432;-69
2023/09/15 02:00:46;;;;;;;;;7.00;7.00;;;;;20.63;58.27;101187.50;5028873;28;45289;-68
2023/09/15 02:03:12;;;;;;;;;6.67;6.67;;;;;20.14;58.19;101111.94;5039444;28;45337;-69
2023/09/15 02:05:38;;;;;;;;;8.33;7.33;;;;;20.60;58.14;101187.84;5038574;28;46374;-78
2023/09/15 02:08:04;;;;;;;;;5.00;5.00;;;;;20.58;58.20;101195.31;5018046;28;45451;-69
2023/09/15 02:10:29;;;;;;;;;8.67;6.00;;;;;20.53;58.22;101181.59;5017599;28;45246;-69
2023/09/15 02:12:54;;;;;;;;;7.33;7.33;;;;;20.54;58.19;101194.06;5018836;28;45470;-68
2023/09/15 02:15:21;;;;;;;;;9.67;6.33;;;;;20.45;58.31;101179.06;5020945;28;46930;-69
2023/09/15 02:17:48;;;;;;;;;9.00;8.00;;;;;19.89;58.55;101085.41;5038657;28;45514;-68
2023/09/15 02:20:18;;;;;;;;;6.75;6.25;;;;;20.23;58.51;101141.28;5037732;28;46662;-70
2023/09/15 02:22:44;;;;;;;;;4.25;4.25;;;;;20.50;58.42;101187.41;5038923;28;45529;-70
2023/09/15 02:25:10;;;;;;;;;8.00;8.00;;;;;20.50;58.45;101182.81;5037759;28;46214;-70
2023/09/15 02:27:39;;;;;;;;;6.50;6.00;;;;;20.42;58.22;101176.72;5038699;28;45426;-69
2023/09/15 02:30:06;;;;;;;;;8.33;7.33;;;;;20.43;58.63;101179.25;5037038;28;45439;-69
2023/09/15 02:32:32;;;;;;;;;9.33;7.33;;;;;20.40;58.25;101173.38;5018255;28;45619;-70
2023/09/15 02:34:57;;;;;;;;;7.00;6.00;;;;;20.40;58.42;101162.56;5018248;28;47468;-69
2023/09/15 02:37:23;;;;;;;;;6.00;6.00;;;;;20.48;58.44;101178.66;5017825;28;45292;-69
2023/09/15 02:39:48;;;;;;;;;11.00;7.25;;;;;20.42;58.43;101168.63;5018746;28;45235;-70
2023/09/15 02:42:13;;;;;;;;;7.50;5.00;;;;;20.48;58.41;101182.19;5032173;28;45559;-70
2023/09/15 02:44:39;;;;;;;;;5.00;5.00;;;;;20.16;58.41;101126.06;5037519;28;45588;-69
2023/09/15 02:47:04;;;;;;;;;8.00;8.00;;;;;20.45;58.25;101179.06;5038394;28;45225;-68
2023/09/15 02:49:29;;;;;;;;;6.00;5.00;;;;;20.44;58.69;101169.28;5038289;28;45368;-79
2023/09/15 02:51:57;;;;;;;;;8.00;6.75;;;;;20.42;58.51;101176.72;5037467;28;45545;-69
2023/09/15 02:54:22;;;;;;;;;6.00;6.00;;;;;20.41;58.59;101183.16;5038258;28;47574;-68
2023/09/15 02:56:47;;;;;;;;;5.00;5.00;;;;;20.42;58.57;101174.03;5018418;28;45290;-70
2023/09/15 02:59:12;;;;;;;;;7.33;6.67;;;;;20.31;58.80;101157.31;5018195;28;50968;-69
2023/09/15 03:01:38;;;;;;;;;6.33;5.33;;;;;20.40;58.62;101170.66;5023704;28;45387;-69
2023/09/15 03:04:03;;;;;;;;;6.50;6.50;;;;;20.34;58.56;101159.63;5038387;28;46482;-69
2023/09/15 03:06:29;;;;;;;;;5.33;5.33;;;;;20.41;58.46;101172.38;5036734;28;45254;-69
2023/09/15 03:08:54;;;;;;;;;6.33;6.33;;;;;20.28;58.97;101162.28;5020242;28;45361;-69
2023/09/15 03:11:21;;;;;;;;;10.00;8.33;;;;;20.03;58.90;101116.03;5015763;28;45482;-69
2023/09/15 03:13:47;;;;;;;;;5.33;5.33;;;;;20.36;58.90;101171.06;5036266;28;47567;-69
2023/09/15 03:16:13;;;;;;;;;7.00;7.00;;;;;20.06;59.05;101121.03;5030214;28;45569;-69
2023/09/15 03:18:38;;;;;;;;;8.33;8.33;;;;;20.37;59.19;101166.50;5018249;28;45479;-69
2023/09/15 03:21:04;;;;;;;;;7.67;7.67;;;;;20.32;58.72;101155.47;5022647;28;45459;-69
2023/09/15 03:23:30;;;;;;;;;6.00;5.00;;;;;20.12;59.08;101125.63;5037618;28;47252;-69
2023/09/15 03:26:02;;;;;;;;;8.00;7.33;;;;;20.36;59.13;101160.25;5037053;28;45517;-69
2023/09/15 03:28:31;;;;;;;;;8.00;8.00;;;;;20.37;58.66;101161.09;5037767;28;45245;-69
2023/09/15 03:30:56;;;;;;;;;6.00;6.00;;;;;20.39;58.70;101163.59;5023246;28;45417;-69
2023/09/15 03:33:23;;;;;;;;;6.00;6.00;;;;;20.39;58.78;101152.78;5017379;28;47745;-68
2023/09/15 03:35:48;;;;;;;;;6.00;6.00;;;;;20.37;58.92;101150.28;5016952;28;45443;-72
2023/09/15 03:38:13;;;;;;;;;9.00;8.00;;;;;20.14;58.91;101107.38;5037692;28;45264;-69
2023/09/15 03:40:39;;;;;;;;;7.00;6.00;;;;;20.40;58.98;101149.06;5037344;28;49678;-69
2023/09/15 03:43:04;;;;;;;;;6.75;6.75;;;;;20.30;59.02;101131.34;5026416;28;67374;-68
2023/09/15 03:45:29;;;;;;;;;11.00;10.00;;;;;20.37;59.19;101144.88;5017066;28;45260;-71
2023/09/15 03:47:54;;;;;;;;;7.33;6.67;;;;;20.36;59.31;101152.16;5037389;28;45667;-70
2023/09/15 03:50:21;;;;;;;;;7.33;7.33;;;;;20.30;59.17;101149.44;5036943;28;51884;-67
2023/09/15 03:52:47;;;;;;;;;10.33;7.67;;;;;20.26;59.07;101143.59;5036050;28;45851;-68
2023/09/15 03:55:13;;;;;;;;;7.00;7.00;;;;;20.35;59.09;101145.09;5037158;28;45596;-70
2023/09/15 03:57:38;;;;;;;;;8.00;6.67;;;;;20.34;59.13;101145.28;5036095;28;45210;-68
2023/09/15 04:00:05;;;;;;;;;8.00;7.00;;;;;20.32;59.25;101142.78;5037485;28;45485;-69
2023/09/15 04:02:30;;;;;;;;;7.00;7.00;;;;;20.35;59.46;101142.38;5032289;28;47496;-69
2023/09/15 04:04:55;;;;;;;;;7.00;7.00;;;;;20.35;59.20;101142.38;5036512;28;45497;-69
2023/09/15 04:07:22;;;;;;;;;9.00;7.00;;;;;20.00;59.20;101081.31;5014958;28;45520;-69
2023/09/15 04:09:47;;;;;;;;;6.33;6.00;;;;;20.31;58.93;101130.31;5024894;28;45420;-68
2023/09/15 04:12:13;;;;;;;;;6.67;6.67;;;;;20.32;59.14;101132.00;5027126;28;46724;-69
2023/09/15 04:14:38;;;;;;;;;8.00;8.00;;;;;20.27;59.03;101137.16;5017171;28;45348;-69
2023/09/15 04:17:03;;;;;;;;;6.33;5.00;;;;;19.93;59.26;101072.34;5016552;28;45327;-69
2023/09/15 04:19:29;;;;;;;;;9.75;5.25;;;;;20.30;58.99;101125.97;5017117;28;45554;-69
2023/09/15 04:21:54;;;;;;;;;8.67;6.33;;;;;20.29;59.08;101113.50;5016288;28;45580;-69
2023/09/15 04:24:20;;;;;;;;;8.00;6.00;;;;;20.28;59.00;101119.91;5016795;28;45309;-69
2023/09/15 04:26:45;;;;;;;;;7.00;7.00;;;;;20.21;59.26;101113.63;5029497;28;45365;-70
2023/09/15 04:29:10;;;;;;;;;6.67;5.67;;;;;20.23;59.15;101117.00;5037037;28;45561;-69
2023/09/15 04:31:37;;;;;;;;;7.00;7.00;;;;;20.21;59.49;101115.50;5029256;28;46441;-68
2023/09/15 04:34:03;;;;;;;;;6.33;6.33;;;;;20.20;59.52;101105.72;5037788;28;45301;-70
2023/09/15 04:36:30;;;;;;;;;7.00;7.00;;;;;20.17;59.52;101109.66;5021740;28;45210;-69
2023/09/15 04:38:55;;;;;;;;;8.33;8.00;;;;;20.12;59.82;101106.72;5020570;28;45634;-69
2023/09/15 04:41:21;;;;;;;;;7.33;7.33;;;;;20.12;59.60;101109.44;5035724;28;46761;-68
2023/09/15 04:43:47;;;;;;;;;6.00;6.00;;;;;19.86;59.21;101066.06;5039387;28;45518;-68
2023/09/15 04:46:12;;;;;;;;;8.00;8.00;;;;;20.05;59.77;101089.66;5039289;28;45885;-69
2023/09/15 04:48:38;;;;;;;;;10.00;6.67;;;;;19.92;59.81;101067.97;5039144;28;45469;-70
2023/09/15 04:51:03;;;;;;;;;7.67;7.33;;;;;20.08;59.32;101097.38;5039191;28;45603;-69
2023/09/15 04:53:28;;;;;;;;;8.33;7.33;;;;;20.00;59.72;101084.00;5039802;28;45494;-71
2023/09/15 04:55:54;;;;;;;;;9.67;8.33;;;;;20.04;59.79;101093.41;5038835;28;48095;-69
2023/09/15 04:58:19;;;;;;;;;8.67;8.67;;;;;19.95;59.65;101087.31;5022171;28;45504;-69
2023/09/15 05:00:45;;;;;;;;;8.33;6.67;;;;;19.99;59.82;101090.44;5017766;28;47601;-70
2023/09/15 05:03:11;;;;;;;;;7.25;6.25;;;;;20.02;59.88;101093.59;5037738;28;45564;-69
2023/09/15 05:05:37;;;;;;;;;7.67;6.00;;;;;20.07;59.85;101095.69;5039617;28;45249;-69
2023/09/15 05:08:02;;;;;;;;;7.33;6.67;;;;;19.94;59.69;101080.25;5038965;28;45493;-69
2023/09/15 05:10:28;;;;;;;;;8.00;8.00;;;;;19.94;59.78;101085.63;5039294;28;47806;-69
2023/09/15 05:12:53;;;;;;;;;9.50;6.25;;;;;19.98;60.14;101102.25;5030430;28;45257;-69
2023/09/15 05:15:19;;;;;;;;;10.00;8.00;;;;;19.94;59.76;101091.03;5039862;28;45353;-71
2023/09/15 05:17:47;;;;;;;;;8.33;7.33;;;;;20.01;59.88;101107.25;5023596;28;45218;-69
2023/09/15 05:20:12;;;;;;;;;9.75;8.50;;;;;20.00;60.06;101117.22;5017942;28;46406;-69
2023/09/15 05:22:37;;;;;;;;;6.25;6.25;;;;;19.94;59.76;101104.53;5034901;28;45389;-73
2023/09/15 05:25:04;;;;;;;;;9.33;7.00;;;;;19.93;59.87;101107.44;5027682;28;45398;-69
2023/09/15 05:27:31;;;;;;;;;8.33;7.33;;;;;19.84;59.90;101106.75;5039534;28;45232;-69
2023/09/15 05:29:56;;;;;;;;;8.00;7.00;;;;;19.85;59.90;101118.38;5038061;28;47040;-69
2023/09/15 05:32:21;;;;;;;;;8.33;7.00;;;;;19.44;60.17;101054.31;5031941;28;45273;-70
2023/09/15 05:34:47;;;;;;;;;8.67;7.33;;;;;19.77;60.41;101111.25;5025940;28;46251;-69
2023/09/15 05:37:13;;;;;;;;;7.33;7.33;;;;;19.75;60.54;101114.13;5039665;28;45287;-70
2023/09/15 05:39:38;;;;;;;;;5.33;5.33;;;;;19.75;60.37;101113.31;5029128;28;46534;-71
2023/09/15 05:42:04;;;;;;;;;6.67;6.67;;;;;19.75;60.26;101118.69;5021350;28;45459;-72
2023/09/15 05:44:29;;;;;;;;;6.50;6.00;;;;;19.77;60.27;101115.81;5038959;28;45213;-70
2023/09/15 05:46:55;;;;;;;;;7.00;7.00;;;;;19.72;60.58;101111.00;5037765;28;52177;-70
2023/09/15 05:49:20;;;;;;;;;4.33;4.33;;;;;19.60;60.19;101099.06;5035490;28;46467;-70
2023/09/15 05:51:46;;;;;;;;;10.25;8.50;;;;;19.71;60.55;101112.88;5017409;28;45397;-68
2023/09/15 05:54:11;;;;;;;;;8.33;8.33;;;;;19.68;60.75;101107.88;5018983;28;45466;-69
2023/09/15 05:56:37;;;;;;;;;8.50;8.50;;;;;19.59;60.39;101097.38;5028238;28;45487;-70
2023/09/15 05:59:03;;;;;;;;;6.00;6.00;;;;;19.60;61.12;101099.88;5038533;28;46398;-69
2023/09/15 06:01:29;;;;;;;;;7.33;7.33;;;;;19.65;60.90;101110.13;5019832;28;45538;-69
2023/09/15 06:03:54;;;;;;;;;8.67;8.67;;;;;19.61;60.89;101087.22;5022849;28;45408;-70
2023/09/15 06:06:19;;;;;;;;;8.00;8.00;;;;;19.72;60.63;101116.38;5019856;28;45432;-70
2023/09/15 06:08:45;;;;;;;;;9.00;8.00;;;;;19.64;60.69;101095.81;5017675;28;45578;-69
2023/09/15 06:11:10;;;;;;;;;8.33;8.33;;;;;19.47;60.77;101063.88;5020267;28;45490;-69
2023/09/15 06:13:37;;;;;;;;;8.67;8.00;;;;;19.72;60.56;101109.13;5037449;28;45756;-69
2023/09/15 06:16:05;;;;;;;;;7.67;5.33;;;;;19.45;60.34;101061.38;5031895;28;45541;-70
2023/09/15 06:18:31;;;;;;;;;8.00;6.00;;;;;19.72;60.69;101117.22;5024325;28;45711;-69
2023/09/15 06:20:57;;;;;;;;;10.33;9.33;;;;;19.39;60.78;101059.44;5021743;28;45437;-69
2023/09/15 06:23:22;;;;;;;;;8.67;8.67;;;;;19.40;60.78;101044.91;5018360;28;45316;-68
2023/09/15 06:25:48;;;;;;;;;10.25;8.75;;;;;19.74;60.76;101111.63;5017544;28;45465;-69
2023/09/15 06:28:14;;;;;;;;;7.00;6.33;;;;;19.82;60.56;101113.34;5015505;28;46459;-69
2023/09/15 06:30:39;;;;;;;;;9.67;8.67;;;;;19.86;60.52;101114.66;5016455;28;45474;-69
2023/09/15 06:33:05;;;;;;;;;8.00;8.00;;;;;19.87;60.52;101100.97;5016734;28;45770;-69
2023/09/15 06:35:30;;;;;;;;;8.33;8.33;;;;;19.59;60.23;101052.38;5034462;28;45603;-69
2023/09/15 06:37:55;;;;;;;;;8.00;8.00;;;;;19.92;60.35;101114.69;5034290;28;61682;-69
2023/09/15 06:40:21;;;;;;;;;12.33;10.33;;;;;19.89;60.31;101092.66;5024526;28;45375;-70
2023/09/15 06:42:46;;;;;;;;;11.67;10.67;;;;;20.00;60.48;101094.81;5024079;28;52226;-69
2023/09/15 06:45:11;;;;;;;;;10.00;10.00;;;;;19.97;60.08;101093.34;5017511;28;55916;-70
2023/09/15 06:47:37;;;;;;;;;11.00;10.33;;;;;20.05;60.17;101097.75;5027249;28;45601;-69
2023/09/15 06:50:03;;;;;;;;;10.33;9.00;;;;;20.16;59.90;101105.28;5036291;28;45336;-69
2023/09/15 06:52:30;;;;;;;;;10.67;9.00;;;;;20.25;59.57;101097.88;5057693;28;45474;-68
2023/09/15 06:54:56;;;;;;;;;10.67;9.00;;;;;20.73;58.97;101112.28;5031125;28;45409;-69
2023/09/15 06:57:21;;;;;;;;;11.67;11.67;;;;;21.25;58.30;101102.72;5032394;28;46364;-69
2023/09/15 06:59:46;;;;;;;;;9.67;7.67;;;;;21.66;56.67;101074.66;5031031;28;45780;-68
2023/09/15 07:02:11;;;;;;;;;14.67;12.67;;;;;22.32;54.85;101107.06;5033764;28;45559;-69
2023/09/15 07:04:37;;;;;;;;;12.67;11.33;;;;;22.80;53.65;101103.97;5031256;28;45570;-70
2023/09/15 07:07:02;;;;;;;;;11.33;9.00;;;;;23.33;52.03;101104.53;5036512;28;46516;-69
2023/09/15 07:09:28;;;;;;;;;7.00;7.00;;;;;23.51;50.31;101095.66;5050085;28;45470;-69
2023/09/15 07:11:53;;;;;;;;;8.00;8.00;;;;;23.76;50.83;101104.66;5036110;28;46693;-69
2023/09/15 07:14:18;;;;;;;;;11.00;10.33;;;;;23.88;50.14;101093.91;5042260;28;46721;-69
2023/09/15 07:16:44;;;;;;;;;13.33;12.33;;;;;24.16;49.36;101107.00;5029225;28;46307;-69
2023/09/15 07:19:10;;;;;;;;;8.25;6.00;;;;;24.40;48.46;101068.09;5035143;28;45303;-71
2023/09/15 07:21:40;;;;;;;;;9.25;7.50;;;;;24.79;47.31;101082.25;5035554;28;45435;-69
2023/09/15 07:24:06;;;;;;;;;9.50;8.25;;;;;25.26;46.65;101087.91;5037428;28;45498;-70
2023/09/15 07:26:31;;;;;;;;;12.00;10.67;;;;;25.38;46.21;101039.75;5039089;28;46321;-70
2023/09/15 07:28:57;;;;;;;;;8.00;8.00;;;;;25.94;45.10;101087.44;5038505;28;56266;-69
2023/09/15 07:31:22;;;;;;;;;11.00;9.00;;;;;26.26;43.98;101091.44;5037901;28;45359;-68
2023/09/15 07:33:47;;;;;;;;;6.00;6.00;;;;;26.64;43.31;101084.63;5056919;28;45347;-69
2023/09/15 07:36:13;;;;;;;;;8.33;8.33;;;;;27.01;42.95;101095.19;5037146;28;46406;-71
2023/09/15 07:38:38;;;;;;;;;9.00;8.00;;;;;27.39;42.16;101091.78;5024681;28;45580;-70
2023/09/15 07:41:04;;;;;;;;;8.00;8.00;;;;;27.73;41.45;101076.25;5036907;28;46338;-69
2023/09/15 07:43:29;;;;;;;;;13.67;9.00;;;;;28.02;40.57;101083.25;5032440;28;45591;-69
2023/09/15 07:45:54;;;;;;;;;8.67;8.67;;;;;28.26;39.88;101072.16;5055588;28;45561;-75
2023/09/15 07:48:21;;;;;;;;;10.67;9.67;;;;;28.48;39.32;101057.41;5054483;28;52095;-70
2023/09/15 07:50:47;;;;;;;;;11.00;10.00;;;;;28.88;39.22;101067.19;5052093;28;45367;-69
2023/09/15 07:53:12;;;;;;;;;11.33;9.33;;;;;29.07;38.48;101062.16;5036773;28;45602;-68
2023/09/15 07:55:38;;;;;;;;;9.00;9.00;;;;;29.54;38.04;101069.72;5039515;28;45830;-68
2023/09/15 07:58:03;;;;;;;;;8.00;7.33;;;;;29.94;36.86;101060.97;5050479;28;45192;-69
2023/09/15 08:00:29;;;;;;;;;9.67;8.33;;;;;30.33;36.08;101058.72;5035294;28;48679;-70
2023/09/15 08:02:54;;;;;;;;;9.33;9.33;;;;;30.92;35.79;101074.88;5042245;28;45512;-70
2023/09/15 08:05:20;;;;;;;;;8.00;8.00;;;;;31.10;34.86;101044.16;5039109;28;46496;-69
2023/09/15 08:07:46;;;;;;;;;8.00;8.00;;;;;31.54;34.02;101040.06;5045934;28;45438;-70
2023/09/15 08:10:13;;;;;;;;;9.25;8.50;;;;;31.78;33.35;101055.72;5033249;28;45531;-69
2023/09/15 08:12:38;;;;;;;;;9.00;6.67;;;;;32.09;33.12;101055.66;5037551;28;45561;-69
2023/09/15 08:15:05;;;;;;;;;11.33;9.00;;;;;32.32;32.06;101048.72;5038014;28;47956;-70
2023/09/15 08:17:31;;;;;;;;;8.00;8.00;;;;;32.51;31.99;101057.97;5026284;28;45349;-68
2023/09/15 08:19:56;;;;;;;;;6.33;6.33;;;;;32.59;31.69;101056.56;5023676;28;45556;-68
2023/09/15 08:22:22;;;;;;;;;8.67;8.67;;;;;32.40;32.17;101044.53;5044272;28;45313;-70
2023/09/15 08:24:49;;;;;;;;;12.00;10.67;;;;;32.24;32.42;101052.84;5052510;28;47346;-69
2023/09/15 08:27:15;;;;;;;;;7.33;7.33;;;;;32.33;32.64;101050.34;5027548;28;45701;-69
2023/09/15 08:29:40;;;;;;;;;9.00;7.67;;;;;32.37;32.24;101060.50;5051486;28;45288;-70
2023/09/15 08:32:07;;;;;;;;;10.67;9.33;;;;;32.15;32.21;101051.75;5028805;28;45536;-69
2023/09/15 08:34:32;;;;;;;;;10.33;8.67;;;;;31.81;32.93;101031.50;5055727;28;45697;-69
2023/09/15 08:36:57;;;;;;;;;7.00;6.00;;;;;31.56;33.20;101010.38;5041213;28;45476;-69
2023/09/15 08:39:23;;;;;;;;;10.00;8.00;;;;;31.83;32.86;101051.28;5051938;28;53516;-68
2023/09/15 08:42:02;;;;;;;;;8.00;7.00;;;;;31.78;33.05;101055.72;5055975;28;47873;-68
2023/09/15 08:44:32;;;;;;;;;9.00;8.33;;;;;31.92;32.75;101069.72;5055913;28;46611;-70
2023/09/15 08:47:00;;;;;;;;;6.50;6.50;;;;;32.12;32.79;101060.59;5044284;28;45623;-70
2023/09/15 08:49:26;;;;;;;;;7.33;7.33;;;;;32.17;32.55;100999.22;5045754;28;45475;-68
2023/09/15 08:51:57;;;;;;;;;9.00;7.33;;;;;32.90;31.18;101060.81;5055999;28;45642;-68
2023/09/15 08:54:23;;;;;;;;;7.67;7.67;;;;;33.22;31.27;101051.22;5043799;28;46546;-71
2023/09/15 08:56:49;;;;;;;;;9.00;9.00;;;;;33.78;29.93;101054.31;5033459;28;45520;-69
2023/09/15 08:59:16;;;;;;;;;7.00;7.00;;;;;34.35;29.24;101051.81;5048506;28;45367;-68
2023/09/15 09:01:41;;;;;;;;;10.00;9.00;;;;;34.88;28.15;101065.47;5055725;28;45645;-70
2023/09/15 09:04:07;;;;;;;;;6.33;5.33;;;;;34.51;28.34;100977.88;5041370;28;45872;-68
2023/09/15 09:06:34;;;;;;;;;7.67;7.67;;;;;34.68;28.60;101033.41;5055713;28;45434;-69
2023/09/15 09:09:00;;;;;;;;;8.33;8.00;;;;;34.70;28.67;101064.31;5036753;28;45338;-70
2023/09/15 09:11:26;;;;;;;;;9.00;7.00;;;;;34.38;28.16;101023.59;5056089;28;45465;-69
2023/09/15 09:13:52;;;;;;;;;8.67;8.67;;;;;34.55;28.47;101056.22;5035532;28;45653;-70
2023/09/15 09:16:20;;;;;;;;;7.67;6.00;;;;;34.73;28.64;101059.00;5015380;28;45760;-70
2023/09/15 09:19:00;;;;;;;;;8.33;8.00;;;;;35.15;28.04;101048.19;5034127;28;45416;-70
2023/09/15 09:21:27;;;;;;;;;8.00;7.00;;;;;35.96;27.27;101031.00;5030367;28;45495;-70
2023/09/15 09:23:55;;;;;;;;;7.67;6.67;;;;;37.05;25.86;101047.78;5034977;28;46602;-70
2023/09/15 09:26:20;;;;;;;;;9.00;7.67;;;;;37.99;23.53;101041.19;5029904;28;45331;-70
2023/09/15 09:28:46;;;;;;;;;7.00;7.00;;;;;38.69;23.34;101040.25;5052245;28;45278;-70
2023/09/15 09:31:11;;;;;;;;;8.00;8.00;;;;;39.28;22.93;101040.56;5037495;28;46253;-69
2023/09/15 09:33:37;;;;;;;;;8.00;8.00;;;;;39.92;22.12;101040.56;5053299;28;45726;-70
2023/09/15 09:36:13;;;;;;;;;12.00;8.33;;;;;40.54;21.58;101031.53;5034457;28;45538;-69
2023/09/15 09:38:50;;;;;;;;;6.67;6.67;;;;;40.98;21.04;101023.66;5041886;28;45351;-71
2023/09/15 09:41:21;;;;;;;;;8.00;8.00;;;;;41.20;20.65;101023.28;5039230;28;45271;-69
2023/09/15 09:43:48;;;;;;;;;7.00;7.00;;;;;41.52;20.58;101026.41;5048470;28;45716;-70
2023/09/15 09:46:18;;;;;;;;;7.00;7.00;;;;;41.61;20.10;101018.72;5031945;28;45327;-71
2023/09/15 09:48:45;;;;;;;;;9.33;9.33;;;;;41.98;20.01;101035.53;5050898;28;45599;-71
2023/09/15 09:51:13;;;;;;;;;11.00;9.00;;;;;42.09;20.45;101037.56;5041890;28;45474;-71
2023/09/15 09:53:39;;;;;;;;;11.00;10.33;;;;;41.98;19.76;101027.16;5011535;28;47712;-71
2023/09/15 09:56:05;;;;;;;;;11.67;10.67;;;;;41.20;21.03;101034.44;5037496;28;45452;-70
2023/09/15 09:58:32;;;;;;;;;9.33;8.33;;;;;40.28;21.58;101025.31;5028904;28;45470;-70
2023/09/15 10:00:58;;;;;;;;;8.67;8.67;;;;;39.33;22.58;101020.94;5044211;28;45576;-70
2023/09/15 10:03:24;;;;;;;;;10.00;9.00;;;;;38.09;23.77;101035.34;5013960;28;48361;-72
2023/09/15 10:05:50;;;;;;;;;9.33;9.33;;;;;37.10;25.11;101031.84;5029208;28;45518;-72
2023/09/15 10:08:16;;;;;;;;;14.33;14.33;;;;;36.15;25.89;101024.53;5046164;28;46118;-71
2023/09/15 10:10:44;;;;;;;;;9.00;7.67;;;;;35.02;27.25;100967.69;5043256;28;45554;-70
2023/09/15 10:13:18;;;;;;;;;8.33;7.33;;;;;34.35;28.06;101013.16;5057657;28;46671;-72
2023/09/15 10:15:45;;;;;;;;;6.67;5.00;;;;;33.58;28.71;101008.47;5039075;28;45457;-71
2023/09/15 10:18:14;;;;;;;;;6.33;6.33;;;;;32.61;30.46;101002.03;5028668;28;46174;-72
2023/09/15 10:20:44;;;;;;;;;8.33;7.33;;;;;31.90;31.30;101008.69;5027928;28;45325;-70
2023/09/15 10:23:13;;;;;;;;;9.00;8.00;;;;;31.35;32.49;101013.13;5030649;28;45765;-71
2023/09/15 10:25:45;;;;;;;;;7.33;6.33;;;;;30.89;33.68;101015.03;5036576;28;45580;-71
2023/09/15 10:28:11;;;;;;;;;8.00;8.00;;;;;30.32;34.14;100979.44;5018062;28;45445;-72
2023/09/15 10:30:37;;;;;;;;;10.00;7.00;;;;;30.02;34.74;101004.78;5036835;28;45472;-71
2023/09/15 10:33:05;;;;;;;;;5.33;5.33;;;;;29.57;35.77;100992.47;5034163;28;46354;-70
2023/09/15 10:35:32;;;;;;;;;8.33;8.00;;;;;29.24;36.15;100988.94;5042816;28;45430;-71
2023/09/15 10:38:02;;;;;;;;;9.00;7.00;;;;;28.68;37.47;100955.56;5042119;28;45520;-72
2023/09/15 10:40:29;;;;;;;;;7.00;7.00;;;;;28.55;37.73;100969.66;5029583;28;45383;-74
2023/09/15 10:42:55;;;;;;;;;9.67;7.33;;;;;28.39;38.11;100974.13;5035729;28;47588;-72
2023/09/15 10:45:21;;;;;;;;;13.00;10.67;;;;;27.84;38.53;100905.94;5057252;28;45537;-72
2023/09/15 10:48:00;;;;;;;;;8.00;8.00;;;;;27.95;39.04;100959.63;5038569;28;45477;-72
2023/09/15 10:50:36;;;;;;;;;9.00;7.67;;;;;27.76;39.78;100963.75;5025783;28;45412;-70
2023/09/15 10:53:10;;;;;;;;;9.00;8.00;;;;;27.65;39.92;100956.50;5035590;28;45830;-71
2023/09/15 10:55:36;;;;;;;;;9.67;9.33;;;;;27.61;39.96;100971.69;5027378;28;45330;-69
2023/09/15 10:58:03;;;;;;;;;9.00;7.33;;;;;27.32;39.65;100939.06;5047882;28;45260;-71
2023/09/15 11:00:30;;;;;;;;;10.33;10.33;;;;;27.28;40.59;100937.91;5040831;28;45539;-71
2023/09/15 11:02:56;;;;;;;;;12.33;12.33;;;;;26.99;40.91;100915.28;5029621;28;45757;-70
2023/09/15 11:05:21;;;;;;;;;12.00;9.67;;;;;27.27;40.38;100958.09;5028431;28;45627;-71
2023/09/15 11:07:48;;;;;;;;;9.00;8.00;;;;;27.07;40.68;100935.94;5034465;28;45384;-71
2023/09/15 11:10:13;;;;;;;;;8.00;8.00;;;;;27.05;41.18;100951.75;5057102;28;45495;-72
2023/09/15 11:12:38;;;;;;;;;7.67;7.67;;;;;26.93;41.21;100946.31;5052089;28;46516;-70
2023/09/15 11:15:04;;;;;;;;;6.00;5.33;;;;;26.75;40.43;100928.28;5017558;28;61366;-71
2023/09/15 11:17:31;;;;;;;;;8.00;6.00;;;;;26.72;41.03;100933.41;5056919;28;45337;-70
2023/09/15 11:19:57;;;;;;;;;6.00;5.00;;;;;26.79;40.89;100934.88;5031747;28;45513;-71
2023/09/15 11:22:23;;;;;;;;;5.00;5.00;;;;;26.70;40.47;100933.66;5040921;28;46507;-71